Time;durP1;ratioP1;P1;durP2;ratioP2;P2;SDS_P1;SDS_P2;PMS_P1;PMS_P2;Temp;Humidity;BMP_temperature;BMP_pressure;BME280_temperature;BME280_humidity;BME280_pressure;Samples;Min_cycle;Max_cycle;Signal;HPM_P1;HPM_P2
2022/02/11 00:00:50;;;;;;;0.35;0.30;;;;;;;;;;4099286;28;20062;-66
2022/02/11 00:07:13;;;;;;;0.38;0.20;;;;;;;;;;4099104;28;20092;-66
2022/02/11 00:09:14;;;;;;;0.85;0.20;;;;;;;;;;4099112;28;20063;-66
2022/02/11 00:11:16;;;;;;;0.10;0.10;;;;;;;;;;4097653;29;20118;-66
2022/02/11 00:13:17;;;;;;;0.10;0.10;;;;;;;;;;4099227;28;20047;-66
2022/02/11 00:17:38;;;;;;;0.20;0.15;;;;;;;;;;4098699;28;20051;-66
2022/02/11 00:19:39;;;;;;;0.20;0.10;;;;;;;;;;4098861;28;20054;-66
2022/02/11 00:21:40;;;;;;;0.28;0.10;;;;;;;;;;4098979;28;20055;-66
2022/02/11 00:23:41;;;;;;;0.10;0.10;;;;;;;;;;4098888;28;20114;-66
2022/02/11 00:25:48;;;;;;;0.68;0.20;;;;;;;;;;4099016;28;20186;-66
2022/02/11 00:34:31;;;;;;;0.10;0.10;;;;;;;;;;4098293;28;20433;-66
2022/02/11 00:36:40;;;;;;;0.52;0.10;;;;;;;;;;4098727;28;20055;-66
2022/02/11 01:05:43;;;;;;;0.43;0.20;;;;;;;;;;4107956;28;19926;-66
2022/02/11 01:07:44;;;;;;;0.10;0.10;;;;;;;;;;4114293;28;20061;-66
2022/02/11 01:09:46;;;;;;;0.40;0.20;;;;;;;;;;4114260;28;20133;-66
2022/02/11 01:11:53;;;;;;;1.00;0.10;;;;;;;;;;4114115;28;20113;-66
2022/02/11 01:13:54;;;;;;;0.32;0.20;;;;;;;;;;4114082;28;20055;-67
2022/02/11 01:16:04;;;;;;;0.40;0.20;;;;;;;;;;4113512;28;20113;-66
2022/02/11 01:18:08;;;;;;;0.08;0.08;;;;;;;;;;4114157;28;20069;-66
2022/02/11 01:20:18;;;;;;;0.40;0.20;;;;;;;;;;4128516;28;20415;-66
2022/02/11 01:27:52;;;;;;;0.40;0.20;;;;;;;;;;4114041;28;20094;-66
2022/02/11 01:31:50;;;;;;;0.15;0.10;;;;;;;;;;4112520;28;20464;-66
2022/02/11 01:36:16;;;;;;;0.70;0.17;;;;;;;;;;4114064;28;20196;-65
2022/02/11 01:38:33;;;;;;;0.20;0.17;;;;;;;;;;4114064;28;20453;-66
2022/02/11 01:51:48;;;;;;;1.25;0.20;;;;;;;;;;4117126;28;20117;-66
2022/02/11 01:56:43;;;;;;;0.52;0.17;;;;;;;;;;4117183;28;20062;-66
2022/02/11 01:59:03;;;;;;;0.10;0.10;;;;;;;;;;4116596;28;20062;-66
2022/02/11 02:11:46;;;;;;;0.10;0.10;;;;;;;;;;4116735;28;20334;-66
2022/02/11 02:25:33;;;;;;;0.35;0.20;;;;;;;;;;4082548;29;20535;-66
2022/02/11 02:34:47;;;;;;;;;;;;;;;;;;4101133;28;20415;-66
2022/02/11 02:50:10;;;;;;;0.88;0.30;;;;;;;;;;4100178;28;20043;-66
2022/02/11 02:56:38;;;;;;;0.60;0.20;;;;;;;;;;4100239;29;20561;-66
2022/02/11 02:57:59;;;;;;;0.63;0.30;;;;;;;;;;4099033;29;20464;-66
2022/02/11 04:22:55;;;;;;;0.30;0.20;;;;;;;;;;4114554;28;20384;-67
2022/02/11 04:55:24;;;;;;;0.60;0.20;;;;;;;;;;4098563;29;20396;-66
2022/02/11 04:59:50;;;;;;;0.40;0.20;;;;;;;;;;4098498;28;20055;-66
2022/02/11 05:01:51;;;;;;;0.28;0.10;;;;;;;;;;4098184;28;20059;-66
2022/02/11 05:03:52;;;;;;;0.63;0.28;;;;;;;;;;4098380;28;20051;-66
2022/02/11 05:05:54;;;;;;;0.38;0.10;;;;;;;;;;4109141;28;20494;-66
2022/02/11 05:07:55;;;;;;;0.13;0.10;;;;;;;;;;4114443;28;20126;-66
2022/02/11 05:09:56;;;;;;;0.20;0.20;;;;;;;;;;4114443;28;20066;-67
2022/02/11 05:11:57;;;;;;;0.30;0.17;;;;;;;;;;4114155;28;20457;-66
2022/02/11 05:13:58;;;;;;;0.30;0.20;;;;;;;;;;4114539;28;20162;-66
2022/02/11 05:16:00;;;;;;;0.10;0.10;;;;;;;;;;4114067;28;20065;-66
2022/02/11 05:18:02;;;;;;;0.22;0.10;;;;;;;;;;4114156;28;20059;-66
2022/02/11 05:20:05;;;;;;;0.22;0.10;;;;;;;;;;4113776;28;20061;-66
2022/02/11 05:22:06;;;;;;;0.30;0.17;;;;;;;;;;4114321;28;20387;-66
2022/02/11 05:24:07;;;;;;;0.65;0.28;;;;;;;;;;4114217;28;20065;-65
2022/02/11 05:26:08;;;;;;;0.40;0.10;;;;;;;;;;4113954;28;20066;-66
2022/02/11 05:28:11;;;;;;;0.28;0.13;;;;;;;;;;4114053;28;20359;-66
2022/02/11 05:30:13;;;;;;;0.28;0.13;;;;;;;;;;4114064;28;20171;-66
2022/02/11 05:32:14;;;;;;;0.50;0.20;;;;;;;;;;4113592;28;20062;-66
2022/02/11 05:34:15;;;;;;;0.45;0.20;;;;;;;;;;4114284;28;20150;-66
2022/02/11 05:36:16;;;;;;;0.28;0.20;;;;;;;;;;4113976;28;20149;-65
2022/02/11 05:38:17;;;;;;;0.32;0.10;;;;;;;;;;4114081;28;20557;-66
2022/02/11 05:40:18;;;;;;;0.57;0.10;;;;;;;;;;4114334;28;20063;-66
2022/02/11 05:42:19;;;;;;;0.55;0.22;;;;;;;;;;4113786;28;20086;-66
2022/02/11 05:44:21;;;;;;;0.10;0.10;;;;;;;;;;4114165;28;20063;-66
2022/02/11 05:46:23;;;;;;;0.10;0.10;;;;;;;;;;4113581;28;20058;-66
2022/02/11 05:48:24;;;;;;;0.13;0.10;;;;;;;;;;4114019;28;20058;-66
2022/02/11 05:50:25;;;;;;;0.60;0.30;;;;;;;;;;4114296;28;20105;-66
2022/02/11 05:52:26;;;;;;;0.35;0.15;;;;;;;;;;4128645;28;20475;-66
2022/02/11 05:54:27;;;;;;;0.30;0.15;;;;;;;;;;4104087;28;20059;-66
2022/02/11 05:56:29;;;;;;;0.30;0.30;;;;;;;;;;4097906;28;20090;-66
2022/02/11 05:58:30;;;;;;;0.55;0.40;;;;;;;;;;4098236;28;20114;-66
2022/02/11 06:00:31;;;;;;;0.40;0.20;;;;;;;;;;4099336;28;20556;-66
2022/02/11 06:02:32;;;;;;;0.38;0.10;;;;;;;;;;4111598;28;20102;-66
2022/02/11 06:04:33;;;;;;;0.10;0.10;;;;;;;;;;4112037;28;20117;-66
2022/02/11 06:06:34;;;;;;;1.50;0.30;;;;;;;;;;4110604;28;20449;-66
2022/02/11 06:08:35;;;;;;;0.38;0.13;;;;;;;;;;4126787;28;20062;-66
2022/02/11 06:10:36;;;;;;;0.38;0.10;;;;;;;;;;4112222;28;20117;-66
2022/02/11 06:12:37;;;;;;;0.10;0.10;;;;;;;;;;4111289;28;20063;-66
2022/02/11 06:14:38;;;;;;;0.10;0.10;;;;;;;;;;4111769;28;20141;-65
2022/02/11 06:16:40;;;;;;;2.40;0.20;;;;;;;;;;4111396;28;20069;-65
2022/02/11 06:18:41;;;;;;;0.43;0.20;;;;;;;;;;4111794;28;20491;-65
2022/02/11 06:20:42;;;;;;;0.35;0.20;;;;;;;;;;4111642;28;20400;-66
2022/02/11 06:22:44;;;;;;;0.10;0.10;;;;;;;;;;4111755;28;20058;-65
2022/02/11 06:24:45;;;;;;;0.38;0.20;;;;;;;;;;4111521;28;20055;-66
2022/02/11 06:26:46;;;;;;;0.93;0.30;;;;;;;;;;4111642;28;20121;-66
2022/02/11 06:28:47;;;;;;;0.63;0.20;;;;;;;;;;4111936;28;20058;-66
2022/02/11 06:30:48;;;;;;;0.32;0.13;;;;;;;;;;4126029;28;20109;-65
2022/02/11 06:32:49;;;;;;;0.28;0.20;;;;;;;;;;4114298;28;20055;-65
2022/02/11 06:34:54;;;;;;;0.85;0.20;;;;;;;;;;4114471;28;20058;-66
2022/02/11 06:36:55;;;;;;;1.55;0.32;;;;;;;;;;4114128;28;20055;-65
2022/02/11 06:38:56;;;;;;;1.00;0.38;;;;;;;;;;4114425;28;20110;-65
2022/02/11 06:40:57;;;;;;;2.00;0.38;;;;;;;;;;4114563;28;20066;-66
2022/02/11 06:42:59;;;;;;;0.43;0.20;;;;;;;;;;4114333;28;20491;-66
2022/02/11 06:45:02;;;;;;;0.20;0.20;;;;;;;;;;4114877;28;20059;-65
2022/02/11 06:47:04;;;;;;;0.93;0.30;;;;;;;;;;4113840;28;20133;-66
2022/02/11 06:49:05;;;;;;;0.20;0.15;;;;;;;;;;4129062;28;20066;-66
2022/02/11 06:51:06;;;;;;;0.70;0.20;;;;;;;;;;4114320;28;20081;-65
2022/02/11 06:53:09;;;;;;;0.43;0.20;;;;;;;;;;4112845;28;20050;-66
2022/02/11 06:55:10;;;;;;;1.23;0.30;;;;;;;;;;4113118;28;20093;-66
2022/02/11 06:57:11;;;;;;;0.32;0.20;;;;;;;;;;4112956;28;20058;-65
2022/02/11 06:59:12;;;;;;;0.63;0.38;;;;;;;;;;4113102;28;20204;-66
2022/02/11 07:01:14;;;;;;;0.98;0.50;;;;;;;;;;4112053;28;20109;-65
2022/02/11 07:03:16;;;;;;;0.52;0.25;;;;;;;;;;4112793;28;20050;-65
2022/02/11 07:05:18;;;;;;;1.17;0.50;;;;;;;;;;4112348;28;20537;-65
2022/02/11 07:07:19;;;;;;;1.70;0.30;;;;;;;;;;4111928;28;20059;-66
2022/02/11 07:09:20;;;;;;;1.48;0.30;;;;;;;;;;4110199;28;20141;-65
2022/02/11 07:11:21;;;;;;;2.20;0.28;;;;;;;;;;4111073;28;20084;-66
2022/02/11 07:13:23;;;;;;;0.65;0.20;;;;;;;;;;4113128;28;20216;-66
2022/02/11 07:15:24;;;;;;;0.57;0.20;;;;;;;;;;4107855;28;20133;-65
2022/02/11 07:17:26;;;;;;;0.90;0.20;;;;;;;;;;4103162;28;20055;-66
2022/02/11 07:19:27;;;;;;;1.42;0.40;;;;;;;;;;4111745;28;20097;-65
2022/02/11 07:21:28;;;;;;;1.15;0.25;;;;;;;;;;4107035;28;20137;-65
2022/02/11 07:23:29;;;;;;;2.28;0.20;;;;;;;;;;4107101;28;20533;-65
2022/02/11 07:25:32;;;;;;;0.75;0.22;;;;;;;;;;4103749;28;20121;-65
2022/02/11 07:27:33;;;;;;;0.80;0.32;;;;;;;;;;4113390;28;20101;-66
2022/02/11 07:29:34;;;;;;;0.85;0.30;;;;;;;;;;4107841;28;20062;-65
2022/02/11 07:31:36;;;;;;;0.98;0.40;;;;;;;;;;4103563;28;20090;-63
2022/02/11 07:33:37;;;;;;;0.60;0.22;;;;;;;;;;4102356;28;20494;-61
2022/02/11 07:35:38;;;;;;;0.35;0.20;;;;;;;;;;4096774;28;20062;-64
2022/02/11 07:37:39;;;;;;;0.43;0.25;;;;;;;;;;4102122;28;20061;-63
2022/02/11 07:39:40;;;;;;;0.60;0.30;;;;;;;;;;4120570;28;20050;-60
2022/02/11 07:41:41;;;;;;;2.33;0.25;;;;;;;;;;4107262;28;20050;-59
2022/02/11 07:43:45;;;;;;;1.55;0.20;;;;;;;;;;4106764;28;20059;-58
2022/02/11 07:45:47;;;;;;;0.30;0.20;;;;;;;;;;4106459;28;20066;-62
2022/02/11 07:47:48;;;;;;;0.77;0.30;;;;;;;;;;4108855;28;20201;-63
2022/02/11 07:49:49;;;;;;;0.95;0.30;;;;;;;;;;4108405;28;20066;-63
2022/02/11 07:51:50;;;;;;;0.40;0.30;;;;;;;;;;4106966;28;20074;-61
2022/02/11 07:53:52;;;;;;;0.30;0.30;;;;;;;;;;4106852;28;20113;-63
2022/02/11 07:55:54;;;;;;;0.13;0.10;;;;;;;;;;4110073;28;20861;-63
2022/02/11 07:57:55;;;;;;;0.70;0.32;;;;;;;;;;4109337;28;20099;-63
2022/02/11 07:59:56;;;;;;;3.05;0.30;;;;;;;;;;4108275;28;20467;-59
2022/02/11 08:01:57;;;;;;;0.75;0.45;;;;;;;;;;4101290;28;20165;-59
2022/02/11 08:03:58;;;;;;;0.90;0.30;;;;;;;;;;4104972;28;20051;-60
2022/02/11 08:05:59;;;;;;;0.63;0.20;;;;;;;;;;4107840;28;20108;-60
2022/02/11 08:08:00;;;;;;;0.85;0.38;;;;;;;;;;4105192;28;20501;-65
2022/02/11 08:10:02;;;;;;;0.77;0.30;;;;;;;;;;4106020;28;20058;-64
2022/02/11 08:12:04;;;;;;;0.57;0.30;;;;;;;;;;4104868;28;20079;-63
2022/02/11 08:14:05;;;;;;;0.50;0.20;;;;;;;;;;4102712;28;20113;-64
2022/02/11 08:16:07;;;;;;;0.20;0.20;;;;;;;;;;4101815;28;20059;-63
2022/02/11 08:18:08;;;;;;;0.65;0.30;;;;;;;;;;4101037;28;20051;-63
2022/02/11 08:20:10;;;;;;;3.33;0.57;;;;;;;;;;4097107;28;20089;-63
2022/02/11 08:22:11;;;;;;;0.82;0.30;;;;;;;;;;4102483;28;20118;-64
2022/02/11 08:24:13;;;;;;;2.45;0.28;;;;;;;;;;4105345;28;20070;-63
2022/02/11 08:26:14;;;;;;;0.52;0.20;;;;;;;;;;4104678;28;20542;-65
2022/02/11 08:28:15;;;;;;;0.93;0.57;;;;;;;;;;4104920;28;20117;-61
2022/02/11 08:30:18;;;;;;;0.60;0.30;;;;;;;;;;4103151;28;20069;-63
2022/02/11 08:32:22;;;;;;;0.80;0.22;;;;;;;;;;4105972;28;20173;-62
2022/02/11 08:34:24;;;;;;;0.70;0.25;;;;;;;;;;4104619;28;20081;-63
2022/02/11 08:36:25;;;;;;;0.43;0.30;;;;;;;;;;4105821;28;20117;-63
2022/02/11 08:38:27;;;;;;;1.48;0.30;;;;;;;;;;4101016;28;20621;-65
2022/02/11 08:40:28;;;;;;;1.70;0.50;;;;;;;;;;4101778;28;20090;-65
2022/02/11 08:42:29;;;;;;;1.42;0.20;;;;;;;;;;4104091;28;20058;-64
2022/02/11 08:44:30;;;;;;;2.75;0.43;;;;;;;;;;4104014;28;20510;-64
2022/02/11 08:46:35;;;;;;;0.65;0.40;;;;;;;;;;4104897;28;20121;-64
2022/02/11 08:48:36;;;;;;;2.17;0.32;;;;;;;;;;4103604;28;20461;-63
2022/02/11 08:50:38;;;;;;;0.40;0.30;;;;;;;;;;4101108;28;20105;-65
2022/02/11 08:52:40;;;;;;;0.20;0.20;;;;;;;;;;4105255;28;20062;-65
2022/02/11 08:54:41;;;;;;;1.83;0.43;;;;;;;;;;4104960;28;20070;-65
2022/02/11 08:56:43;;;;;;;1.70;0.30;;;;;;;;;;4106119;28;20420;-65
2022/02/11 08:58:44;;;;;;;1.15;0.30;;;;;;;;;;4103334;28;20202;-65
2022/02/11 09:00:48;;;;;;;0.73;0.30;;;;;;;;;;4104154;28;20085;-64
2022/02/11 09:02:50;;;;;;;2.05;0.40;;;;;;;;;;4100852;28;20114;-64
2022/02/11 09:04:53;;;;;;;1.45;0.40;;;;;;;;;;4104585;28;20086;-64
2022/02/11 09:06:54;;;;;;;2.88;0.57;;;;;;;;;;4103252;28;20453;-64
2022/02/11 09:08:55;;;;;;;0.93;0.20;;;;;;;;;;4101645;28;20446;-64
2022/02/11 09:10:57;;;;;;;1.30;0.30;;;;;;;;;;4106412;28;20455;-64
2022/02/11 09:13:00;;;;;;;3.85;0.73;;;;;;;;;;4103980;28;20129;-64
2022/02/11 09:15:01;;;;;;;0.70;0.20;;;;;;;;;;4102876;28;20058;-64
2022/02/11 09:17:02;;;;;;;2.33;0.30;;;;;;;;;;4104200;28;20054;-64
2022/02/11 09:19:06;;;;;;;2.42;0.40;;;;;;;;;;4102720;28;20109;-64
2022/02/11 09:21:07;;;;;;;0.50;0.17;;;;;;;;;;4100162;28;20144;-64
2022/02/11 09:23:08;;;;;;;0.50;0.30;;;;;;;;;;4104901;28;20078;-64
2022/02/11 09:25:10;;;;;;;0.63;0.20;;;;;;;;;;4104112;28;20518;-63
2022/02/11 09:27:11;;;;;;;0.63;0.20;;;;;;;;;;4106979;28;20470;-64
2022/02/11 09:29:12;;;;;;;0.80;0.20;;;;;;;;;;4100123;28;20386;-64
2022/02/11 09:31:13;;;;;;;0.55;0.30;;;;;;;;;;4105983;28;20074;-65
2022/02/11 09:33:16;;;;;;;0.95;0.22;;;;;;;;;;4104576;28;20408;-64
2022/02/11 09:35:17;;;;;;;0.50;0.25;;;;;;;;;;4103484;28;20077;-65
2022/02/11 09:37:18;;;;;;;0.32;0.17;;;;;;;;;;4101023;28;20063;-65
2022/02/11 09:39:19;;;;;;;0.43;0.28;;;;;;;;;;4102706;28;20758;-64
2022/02/11 09:41:20;;;;;;;0.20;0.20;;;;;;;;;;4104772;28;20117;-64
2022/02/11 09:43:24;;;;;;;0.50;0.15;;;;;;;;;;4099961;28;20057;-65
2022/02/11 09:45:26;;;;;;;0.60;0.22;;;;;;;;;;4117084;28;20109;-65
2022/02/11 09:47:27;;;;;;;1.27;0.40;;;;;;;;;;4104801;28;20506;-64
2022/02/11 09:49:29;;;;;;;1.05;0.30;;;;;;;;;;4104863;28;20062;-64
2022/02/11 09:51:32;;;;;;;0.32;0.20;;;;;;;;;;4103760;28;20149;-64
2022/02/11 09:53:33;;;;;;;0.70;0.20;;;;;;;;;;4105243;28;20570;-65
2022/02/11 09:55:40;;;;;;;1.75;0.25;;;;;;;;;;4101664;28;20069;-64
2022/02/11 09:57:44;;;;;;;1.98;0.35;;;;;;;;;;4099694;28;20059;-64
2022/02/11 09:59:46;;;;;;;1.55;0.30;;;;;;;;;;4100930;28;20065;-64
2022/02/11 10:01:48;;;;;;;0.38;0.15;;;;;;;;;;4103875;28;20054;-64
2022/02/11 10:04:12;;;;;;;0.43;0.20;;;;;;;;;;4101675;28;20117;-64
2022/02/11 10:06:13;;;;;;;0.77;0.30;;;;;;;;;;4106569;28;20063;-64
2022/02/11 10:08:15;;;;;;;0.85;0.30;;;;;;;;;;4121993;28;20062;-64
2022/02/11 10:10:38;;;;;;;1.10;0.40;;;;;;;;;;4107741;28;20079;-65
2022/02/11 10:12:38;;;;;;;1.13;0.28;;;;;;;;;;4108534;28;20121;-65
2022/02/11 10:14:41;;;;;;;0.20;0.20;;;;;;;;;;4110658;28;20051;-64
2022/02/11 10:16:54;;;;;;;0.45;0.20;;;;;;;;;;4109599;28;20098;-64
2022/02/11 10:19:00;;;;;;;2.78;0.38;;;;;;;;;;4108890;28;20050;-63
2022/02/11 10:21:04;;;;;;;0.17;0.13;;;;;;;;;;4110487;28;20055;-64
2022/02/11 10:23:23;;;;;;;0.63;0.35;;;;;;;;;;4111184;28;20392;-65
2022/02/11 10:25:25;;;;;;;1.50;0.30;;;;;;;;;;4105974;28;20062;-64
2022/02/11 10:27:29;;;;;;;1.25;0.20;;;;;;;;;;4107497;28;20071;-63
2022/02/11 10:29:39;;;;;;;0.95;0.20;;;;;;;;;;4108012;28;20074;-63
2022/02/11 10:31:47;;;;;;;0.28;0.20;;;;;;;;;;4107055;28;20051;-63
2022/02/11 10:33:56;;;;;;;0.30;0.10;;;;;;;;;;4109465;28;20457;-64
2022/02/11 10:35:57;;;;;;;1.98;0.75;;;;;;;;;;4106728;28;20054;-64
2022/02/11 10:38:09;;;;;;;0.50;0.20;;;;;;;;;;4111377;28;20117;-62
2022/02/11 10:40:11;;;;;;;0.43;0.20;;;;;;;;;;4109535;28;20051;-62
2022/02/11 10:42:12;;;;;;;0.38;0.20;;;;;;;;;;4106410;28;20062;-63
2022/02/11 10:44:14;;;;;;;0.25;0.20;;;;;;;;;;4109731;28;20051;-62
2022/02/11 10:46:16;;;;;;;0.30;0.30;;;;;;;;;;4107118;28;20335;-64
2022/02/11 10:48:19;;;;;;;1.38;0.20;;;;;;;;;;4107433;28;20498;-63
2022/02/11 10:50:28;;;;;;;0.32;0.20;;;;;;;;;;4107061;28;20065;-63
2022/02/11 10:52:33;;;;;;;0.35;0.25;;;;;;;;;;4107933;28;20122;-64
2022/02/11 10:54:34;;;;;;;1.58;0.30;;;;;;;;;;4106229;28;20078;-63
2022/02/11 10:56:39;;;;;;;0.90;0.40;;;;;;;;;;4105816;28;20058;-63
2022/02/11 10:58:40;;;;;;;0.40;0.20;;;;;;;;;;4106301;28;20105;-64
2022/02/11 11:00:41;;;;;;;0.10;0.10;;;;;;;;;;4104218;28;20090;-63
2022/02/11 11:02:42;;;;;;;1.38;0.30;;;;;;;;;;4102661;28;20379;-64
2022/02/11 11:04:47;;;;;;;0.93;0.20;;;;;;;;;;4107543;28;20046;-64
2022/02/11 11:06:49;;;;;;;0.40;0.20;;;;;;;;;;4108746;28;20047;-64
2022/02/11 11:08:52;;;;;;;0.50;0.30;;;;;;;;;;4110132;28;20106;-64
2022/02/11 11:10:55;;;;;;;2.05;0.35;;;;;;;;;;4111562;28;20047;-64
2022/02/11 11:12:56;;;;;;;0.80;0.30;;;;;;;;;;4112454;28;20070;-64
2022/02/11 11:15:00;;;;;;;0.15;0.15;;;;;;;;;;4124306;28;20053;-64
2022/02/11 11:17:02;;;;;;;1.67;0.30;;;;;;;;;;4109920;28;20102;-64
2022/02/11 11:19:03;;;;;;;0.82;0.28;;;;;;;;;;4109921;28;20524;-65
2022/02/11 11:21:08;;;;;;;1.17;0.28;;;;;;;;;;4109574;28;20058;-65
2022/02/11 11:23:24;;;;;;;0.38;0.25;;;;;;;;;;4108598;28;20466;-65
2022/02/11 11:25:48;;;;;;;0.65;0.20;;;;;;;;;;4108961;28;20062;-65
2022/02/11 11:27:53;;;;;;;0.10;0.10;;;;;;;;;;4110292;28;20348;-65
2022/02/11 11:30:21;;;;;;;0.52;0.28;;;;;;;;;;4111839;28;20376;-65
2022/02/11 11:32:23;;;;;;;0.20;0.20;;;;;;;;;;4111631;28;20106;-66
2022/02/11 11:34:34;;;;;;;0.63;0.20;;;;;;;;;;4111242;28;20086;-65
2022/02/11 11:36:35;;;;;;;0.80;0.38;;;;;;;;;;4110459;28;20059;-65
2022/02/11 11:38:43;;;;;;;0.25;0.20;;;;;;;;;;4126371;28;20165;-65
2022/02/11 11:41:00;;;;;;;2.10;0.20;;;;;;;;;;4109680;28;20113;-65
2022/02/11 11:43:12;;;;;;;0.25;0.20;;;;;;;;;;4109847;28;20059;-65
2022/02/11 11:45:26;;;;;;;1.38;0.30;;;;;;;;;;4105391;28;20063;-64
2022/02/11 11:47:34;;;;;;;1.25;0.30;;;;;;;;;;4106914;28;20065;-63
2022/02/11 11:49:40;;;;;;;3.50;0.50;;;;;;;;;;4109757;28;20438;-64
2022/02/11 11:51:43;;;;;;;0.77;0.22;;;;;;;;;;4109787;28;20275;-64
2022/02/11 11:53:44;;;;;;;0.43;0.20;;;;;;;;;;4108753;28;20471;-66
2022/02/11 11:55:45;;;;;;;1.20;0.28;;;;;;;;;;4110481;28;20089;-65
2022/02/11 11:57:47;;;;;;;0.43;0.20;;;;;;;;;;4109840;28;20070;-66
2022/02/11 11:59:50;;;;;;;0.30;0.20;;;;;;;;;;4108095;28;20101;-66
2022/02/11 12:02:11;;;;;;;3.45;0.40;;;;;;;;;;4109466;28;20105;-66
2022/02/11 12:04:23;;;;;;;0.25;0.10;;;;;;;;;;4121190;28;20066;-66
2022/02/11 12:06:24;;;;;;;0.32;0.20;;;;;;;;;;4111647;28;20118;-66
2022/02/11 12:08:28;;;;;;;0.52;0.30;;;;;;;;;;4109625;28;20443;-65
2022/02/11 12:10:30;;;;;;;0.30;0.20;;;;;;;;;;4110499;28;20422;-65
2022/02/11 12:12:32;;;;;;;1.10;0.20;;;;;;;;;;4110303;28;20114;-65
2022/02/11 12:14:38;;;;;;;0.82;0.30;;;;;;;;;;4093802;28;20476;-66
2022/02/11 12:16:39;;;;;;;0.45;0.20;;;;;;;;;;4107204;28;20101;-65
2022/02/11 12:18:42;;;;;;;0.35;0.10;;;;;;;;;;4108300;28;20091;-66
2022/02/11 12:20:44;;;;;;;1.10;0.30;;;;;;;;;;4104943;28;20061;-65
2022/02/11 12:27:20;;;;;;;1.95;0.20;;;;;;;;;;4104088;28;20122;-65
2022/02/11 12:27:33;;;;;;;0.32;0.20;;;;;;;;;;4104571;28;20095;-65
2022/02/11 12:29:34;;;;;;;0.70;0.28;;;;;;;;;;4107757;28;20069;-65
2022/02/11 12:31:35;;;;;;;0.80;0.10;;;;;;;;;;4106804;28;20105;-65
2022/02/11 12:33:37;;;;;;;0.50;0.40;;;;;;;;;;4105087;28;20109;-65
2022/02/11 12:35:38;;;;;;;1.02;0.10;;;;;;;;;;4108944;28;20070;-65
2022/02/11 12:37:42;;;;;;;2.55;0.40;;;;;;;;;;4109312;28;20055;-66
2022/02/11 12:39:43;;;;;;;1.08;0.20;;;;;;;;;;4106543;28;20391;-65
2022/02/11 12:41:51;;;;;;;0.22;0.10;;;;;;;;;;4120786;28;20105;-66
2022/02/11 12:43:59;;;;;;;0.30;0.20;;;;;;;;;;4104739;28;20584;-65
2022/02/11 12:46:03;;;;;;;0.20;0.20;;;;;;;;;;4106486;28;20058;-65
2022/02/11 12:48:09;;;;;;;0.43;0.20;;;;;;;;;;4107286;28;20077;-65
2022/02/11 12:50:11;;;;;;;1.88;0.40;;;;;;;;;;4104946;28;20454;-65
2022/02/11 12:52:20;;;;;;;0.45;0.20;;;;;;;;;;4107167;28;20121;-65
2022/02/11 12:54:22;;;;;;;1.05;0.43;;;;;;;;;;4111910;28;20062;-65
2022/02/11 12:56:32;;;;;;;0.85;0.20;;;;;;;;;;4109888;28;20457;-65
2022/02/11 12:58:34;;;;;;;0.30;0.20;;;;;;;;;;4110477;28;20407;-65
2022/02/11 13:00:38;;;;;;;0.63;0.20;;;;;;;;;;4107906;28;20113;-65
2022/02/11 13:02:40;;;;;;;0.30;0.10;;;;;;;;;;4108850;28;20074;-66
2022/02/11 13:04:41;;;;;;;5.22;0.28;;;;;;;;;;4111537;28;20049;-66
2022/02/11 13:06:42;;;;;;;1.30;0.30;;;;;;;;;;4110088;28;20057;-66
2022/02/11 13:08:43;;;;;;;0.32;0.17;;;;;;;;;;4112596;28;20081;-66
2022/02/11 13:10:47;;;;;;;0.60;0.10;;;;;;;;;;4108594;28;20454;-66
2022/02/11 13:12:50;;;;;;;1.48;0.20;;;;;;;;;;4105596;28;20110;-67
2022/02/11 13:14:51;;;;;;;1.73;0.30;;;;;;;;;;4108282;28;21869;-67
2022/02/11 13:16:52;;;;;;;0.30;0.20;;;;;;;;;;4128751;28;20062;-67
2022/02/11 13:18:53;;;;;;;1.92;0.20;;;;;;;;;;4111162;28;20047;-67
2022/02/11 13:20:59;;;;;;;0.60;0.20;;;;;;;;;;4105537;28;20050;-67
2022/02/11 13:23:01;;;;;;;0.47;0.22;;;;;;;;;;4109099;28;20057;-67
2022/02/11 13:25:04;;;;;;;0.85;0.20;;;;;;;;;;4108203;28;20055;-64
2022/02/11 13:27:05;;;;;;;0.47;0.25;;;;;;;;;;4106999;28;20129;-64
2022/02/11 13:29:13;;;;;;;1.13;0.20;;;;;;;;;;4110511;28;20046;-64
2022/02/11 13:31:14;;;;;;;0.90;0.20;;;;;;;;;;4107215;28;20230;-64
2022/02/11 13:33:21;;;;;;;0.50;0.20;;;;;;;;;;4105963;28;20118;-64
2022/02/11 13:35:22;;;;;;;0.63;0.22;;;;;;;;;;4116046;28;20059;-64
2022/02/11 13:37:38;;;;;;;0.73;0.22;;;;;;;;;;4127534;28;20121;-64
2022/02/11 13:39:39;;;;;;;0.80;0.25;;;;;;;;;;4111836;28;20490;-64
2022/02/11 13:41:40;;;;;;;1.17;0.52;;;;;;;;;;4113949;28;20105;-64
2022/02/11 13:43:55;;;;;;;0.70;0.17;;;;;;;;;;4116694;28;20474;-65
2022/02/11 13:46:03;;;;;;;0.70;0.32;;;;;;;;;;4114842;28;20129;-65
2022/02/11 13:48:08;;;;;;;0.20;0.10;;;;;;;;;;4112652;28;20128;-62
2022/02/11 13:50:10;;;;;;;0.52;0.10;;;;;;;;;;4114396;28;20577;-60
2022/02/11 13:54:31;;;;;;;1.38;0.32;;;;;;;;;;4109666;28;20109;-60
2022/02/11 13:56:36;;;;;;;2.30;0.20;;;;;;;;;;4108568;28;20116;-60
2022/02/11 13:58:40;;;;;;;0.88;0.10;;;;;;;;;;4114055;28;20474;-60
2022/02/11 14:00:41;;;;;;;0.20;0.15;;;;;;;;;;4114585;28;20099;-61
2022/02/11 14:02:42;;;;;;;0.70;0.20;;;;;;;;;;4113874;28;20046;-60
2022/02/11 14:04:45;;;;;;;1.10;0.20;;;;;;;;;;4113933;28;20471;-62
2022/02/11 14:06:49;;;;;;;0.38;0.30;;;;;;;;;;4113523;28;20050;-60
2022/02/11 14:08:50;;;;;;;2.28;0.30;;;;;;;;;;4114673;28;20553;-62
2022/02/11 14:11:12;;;;;;;0.60;0.30;;;;;;;;;;4111478;28;20050;-67
2022/02/11 14:13:13;;;;;;;1.83;0.25;;;;;;;;;;4107831;28;20086;-61
2022/02/11 14:15:16;;;;;;;1.55;0.17;;;;;;;;;;4110579;28;20058;-61
2022/02/11 14:17:17;;;;;;;1.58;0.20;;;;;;;;;;4109464;28;20058;-61
2022/02/11 14:19:25;;;;;;;0.70;0.20;;;;;;;;;;4113586;28;20430;-63
2022/02/11 14:21:26;;;;;;;1.15;0.20;;;;;;;;;;4112664;28;20423;-63
2022/02/11 14:23:30;;;;;;;1.65;0.13;;;;;;;;;;4110582;28;20584;-66
2022/02/11 14:25:32;;;;;;;0.73;0.30;;;;;;;;;;4111388;28;20525;-62
2022/02/11 14:27:35;;;;;;;0.57;0.30;;;;;;;;;;4112980;28;20053;-62
2022/02/11 14:29:36;;;;;;;0.98;0.20;;;;;;;;;;4113625;28;20495;-62
2022/02/11 14:31:41;;;;;;;0.30;0.10;;;;;;;;;;4113084;28;20491;-61
2022/02/11 14:33:43;;;;;;;0.43;0.30;;;;;;;;;;4112448;28;20109;-62
2022/02/11 14:35:44;;;;;;;0.68;0.20;;;;;;;;;;4113730;28;20102;-61
2022/02/11 14:37:45;;;;;;;0.52;0.10;;;;;;;;;;4116866;28;20466;-60
2022/02/11 14:39:46;;;;;;;2.20;0.28;;;;;;;;;;4114670;28;20058;-61
2022/02/11 14:41:50;;;;;;;1.73;0.35;;;;;;;;;;4112141;28;20066;-61
2022/02/11 14:43:51;;;;;;;0.20;0.10;;;;;;;;;;4113877;28;20054;-61
2022/02/11 14:45:52;;;;;;;0.60;0.10;;;;;;;;;;4113886;28;20101;-61
2022/02/11 14:47:53;;;;;;;1.85;0.20;;;;;;;;;;4115092;28;20121;-61
2022/02/11 14:49:54;;;;;;;1.35;0.13;;;;;;;;;;4111494;28;20067;-61
2022/02/11 14:51:58;;;;;;;0.40;0.20;;;;;;;;;;4111156;28;20051;-60
2022/02/11 14:54:02;;;;;;;1.65;0.20;;;;;;;;;;4114032;28;20051;-61
2022/02/11 14:56:05;;;;;;;0.63;0.20;;;;;;;;;;4113122;28;20062;-61
2022/02/11 14:58:06;;;;;;;0.40;0.13;;;;;;;;;;4113387;28;20054;-60
2022/02/11 15:00:08;;;;;;;0.73;0.20;;;;;;;;;;4113534;28;20469;-62
2022/02/11 15:02:09;;;;;;;0.85;0.20;;;;;;;;;;4112379;28;20050;-60
2022/02/11 15:04:10;;;;;;;0.75;0.10;;;;;;;;;;4113451;28;20121;-62
2022/02/11 15:06:12;;;;;;;0.70;0.20;;;;;;;;;;4111774;28;20058;-66
2022/02/11 15:08:13;;;;;;;0.25;0.10;;;;;;;;;;4112974;28;20364;-67
2022/02/11 15:10:15;;;;;;;1.70;0.40;;;;;;;;;;4103132;28;20062;-66
2022/02/11 15:12:16;;;;;;;0.20;0.20;;;;;;;;;;4111515;28;20058;-67
2022/02/11 15:14:21;;;;;;;1.63;0.40;;;;;;;;;;4112033;28;20179;-67
2022/02/11 15:16:22;;;;;;;0.13;0.10;;;;;;;;;;4121364;28;20093;-67
2022/02/11 15:18:23;;;;;;;0.77;0.10;;;;;;;;;;4113114;28;20185;-67
2022/02/11 15:20:24;;;;;;;1.17;0.22;;;;;;;;;;4113478;28;20053;-67
2022/02/11 15:22:25;;;;;;;0.40;0.20;;;;;;;;;;4114075;28;20746;-67
2022/02/11 15:24:27;;;;;;;0.47;0.17;;;;;;;;;;4112558;28;20499;-67
2022/02/11 15:26:28;;;;;;;0.50;0.20;;;;;;;;;;4112763;28;20070;-67
2022/02/11 15:28:31;;;;;;;0.20;0.20;;;;;;;;;;4109111;28;20054;-65
2022/02/11 15:30:33;;;;;;;0.68;0.30;;;;;;;;;;4112965;28;20086;-54
2022/02/11 15:32:34;;;;;;;1.08;0.20;;;;;;;;;;4106497;28;20070;-55
2022/02/11 15:34:36;;;;;;;2.38;0.10;;;;;;;;;;4111578;28;20055;-53
2022/02/11 15:36:38;;;;;;;1.05;0.40;;;;;;;;;;4112151;28;20058;-52
2022/02/11 15:38:39;;;;;;;1.00;0.28;;;;;;;;;;4111298;28;20351;-54
2022/02/11 15:40:40;;;;;;;3.03;0.22;;;;;;;;;;4112570;28;20070;-56
2022/02/11 15:42:41;;;;;;;0.88;0.22;;;;;;;;;;4114185;28;20059;-53
2022/02/11 15:44:42;;;;;;;0.68;0.20;;;;;;;;;;4114060;28;20538;-57
2022/02/11 15:46:44;;;;;;;0.77;0.20;;;;;;;;;;4116861;28;20074;-57
2022/02/11 15:48:45;;;;;;;0.93;0.20;;;;;;;;;;4119181;28;20065;-56
2022/02/11 15:50:46;;;;;;;0.57;0.20;;;;;;;;;;4115835;28;20396;-56
2022/02/11 15:52:48;;;;;;;1.73;0.22;;;;;;;;;;4122815;28;20066;-54
2022/02/11 15:54:50;;;;;;;1.75;0.65;;;;;;;;;;4111207;28;20383;-55
2022/02/11 15:57:41;;;;;;;3.22;0.30;;;;;;;;;;4090275;28;20054;-54
2022/02/11 16:03:45;;;;;;;3.55;0.30;;;;;;;;;;4126728;28;20057;-56
2022/02/11 16:05:46;;;;;;;0.40;0.20;;;;;;;;;;4129130;28;20097;-56
2022/02/11 16:07:49;;;;;;;0.82;0.20;;;;;;;;;;4127776;28;20121;-55
2022/02/11 16:09:50;;;;;;;0.30;0.20;;;;;;;;;;4130191;28;20058;-56
2022/02/11 16:11:55;;;;;;;1.27;0.20;;;;;;;;;;4120363;28;20052;-55
2022/02/11 16:13:56;;;;;;;0.32;0.20;;;;;;;;;;4122648;28;20057;-54